Station Historical Data
Daily Summary for August 8, 2017 Units:  Metric    English   Both
« Previous Day
Next Day »
Daily Weekly Monthly Yearly Custom
  High: Low: Average:
Temperature: 25.2 °C 13.5 °C 19.5 °C
Dew Point: 17.3 °C 8.8 °C 14.3 °C
Humidity: 94% 37% 74%
Wind Speed: 25.7km/h 0km/h 4.8km/h
Wind Gust: 27.4km/h - -
Wind- - West
Pressure: 1019.2 hPa 1014.8 hPa -
Precipitation: 0 mm    
Historical Graphs
 
 
Tabular Data for August 8, 2017
Time Temperature Dew Point Pressure Wind Wind Speed Wind Gust Humidity Rainfall Rate (Hourly)
00:04 16.2 °C 14.4 °C 1014.8 hPa Calm     89% 0 mm
00:09 16.1 °C 14.2 °C 1014.8 hPa Calm     89% 0 mm
00:14 15.9 °C 14.1 °C 1014.8 hPa Calm     89% 0 mm
00:19 15.8 °C 14.2 °C 1014.8 hPa Calm     90% 0 mm
00:24 15.7 °C 14.1 °C 1014.8 hPa Calm     90% 0 mm
00:29 15.6 °C 14 °C 1014.8 hPa Calm     90% 0 mm
00:34 15.6 °C 13.9 °C 1014.8 hPa Calm     90% 0 mm
00:39 15.5 °C 13.9 °C 1014.8 hPa Calm     90% 0 mm
00:44 15.5 °C 14.1 °C 1014.8 hPa Calm     91% 0 mm
00:49 15.4 °C 13.8 °C 1014.8 hPa Calm     90% 0 mm
00:54 15.3 °C 13.7 °C 1014.8 hPa Calm     90% 0 mm
00:59 15.2 °C 13.8 °C 1014.8 hPa Calm     91% 0 mm
01:04 15.1 °C 13.7 °C 1014.8 hPa Calm     91% 0 mm
01:09 15.1 °C 13.6 °C 1014.8 hPa Calm     91% 0 mm
01:14 15 °C 13.6 °C 1014.8 hPa Calm     91% 0 mm
01:19 14.9 °C 13.5 °C 1014.8 hPa Calm     91% 0 mm
01:24 14.9 °C 13.4 °C 1014.8 hPa Calm     91% 0 mm
01:29 14.7 °C 13.3 °C 1014.8 hPa Calm     91% 0 mm
01:34 14.7 °C 13.2 °C 1015.1 hPa Calm     91% 0 mm
01:39 14.6 °C 13.2 °C 1015.1 hPa Calm     91% 0 mm
01:44 14.6 °C 13.1 °C 1014.8 hPa Calm     91% 0 mm
01:49 14.6 °C 13.2 °C 1015.1 hPa Calm     91% 0 mm
01:54 14.6 °C 13.3 °C 1015.1 hPa Calm     92% 0 mm
01:59 14.5 °C 13.2 °C 1015.1 hPa Calm     92% 0 mm
02:04 14.5 °C 13.2 °C 1015.1 hPa Calm     92% 0 mm
02:09 14.5 °C 13.2 °C 1015.1 hPa Calm     92% 0 mm
02:14 14.6 °C 13.3 °C 1015.1 hPa Calm     92% 0 mm
02:19 14.5 °C 13.2 °C 1015.1 hPa Calm     92% 0 mm
02:24 14.4 °C 13.1 °C 1015.1 hPa Calm     92% 0 mm
02:29 14.5 °C 13.2 °C 1015.5 hPa Calm     92% 0 mm
02:34 14.6 °C 13.3 °C 1015.5 hPa Calm     92% 0 mm
02:39 14.6 °C 13.3 °C 1015.5 hPa Calm     92% 0 mm
02:44 14.7 °C 13.4 °C 1015.5 hPa Calm     92% 0 mm
02:49 14.7 °C 13.4 °C 1015.5 hPa Calm     92% 0 mm
02:54 14.8 °C 13.7 °C 1015.5 hPa Calm     93% 0 mm
02:59 14.9 °C 13.8 °C 1015.5 hPa Calm     93% 0 mm
03:04 15.1 °C 13.9 °C 1015.5 hPa Calm     93% 0 mm
03:09 15.1 °C 14 °C 1015.5 hPa Calm     93% 0 mm
03:14 15.1 °C 13.9 °C 1015.5 hPa Calm     93% 0 mm
03:19 15 °C 13.7 °C 1015.5 hPa Calm     92% 0 mm
03:24 14.9 °C 13.6 °C 1015.5 hPa Calm     92% 0 mm
03:29 14.9 °C 13.8 °C 1015.5 hPa Calm     93% 0 mm
03:34 14.9 °C 13.8 °C 1015.5 hPa Calm     93% 0 mm
03:39 14.9 °C 13.8 °C 1015.5 hPa Calm     93% 0 mm
03:44 14.8 °C 13.6 °C 1015.5 hPa Calm     92% 0 mm
03:49 14.8 °C 13.7 °C 1015.5 hPa Calm     93% 0 mm
03:54 14.7 °C 13.6 °C 1015.5 hPa Calm     93% 0 mm
03:59 14.6 °C 13.5 °C 1015.5 hPa Calm     93% 0 mm
04:04 14.4 °C 13.2 °C 1015.5 hPa Calm     92% 0 mm
04:09 14.4 °C 13.3 °C 1015.5 hPa Calm     93% 0 mm
04:14 14.3 °C 13.2 °C 1015.5 hPa Calm     93% 0 mm
04:19 14.3 °C 13.2 °C 1015.5 hPa Calm     93% 0 mm
04:24 14.3 °C 13.2 °C 1015.5 hPa Calm     93% 0 mm
04:29 14.3 °C 13.2 °C 1015.5 hPa Calm     93% 0 mm
04:34 14.3 °C 13.2 °C 1015.5 hPa Calm     93% 0 mm
04:39 14.4 °C 13.3 °C 1015.5 hPa Calm     93% 0 mm
04:44 14.4 °C 13.3 °C 1015.5 hPa Calm     93% 0 mm
04:49 14.6 °C 13.4 °C 1015.5 hPa Calm     93% 0 mm
04:54 14.7 °C 13.6 °C 1015.5 hPa Calm     93% 0 mm
04:59 14.7 °C 13.6 °C 1015.5 hPa Calm     93% 0 mm
05:04 14.6 °C 13.5 °C 1015.5 hPa Calm     93% 0 mm
05:09 14.6 °C 13.4 °C 1015.5 hPa Calm     93% 0 mm
05:14 14.5 °C 13.4 °C 1015.5 hPa Calm     93% 0 mm
05:19 14.4 °C 13.3 °C 1015.5 hPa Calm     93% 0 mm
05:24 14.3 °C 13.2 °C 1015.5 hPa Calm     93% 0 mm
05:29 14.2 °C 13.1 °C 1015.5 hPa Calm     93% 0 mm
05:34 14.2 °C 13.1 °C 1015.5 hPa Calm     93% 0 mm
05:39 14.1 °C 12.9 °C 1015.5 hPa Calm     93% 0 mm
05:44 14.1 °C 12.9 °C 1015.5 hPa Calm     93% 0 mm
05:49 14 °C 12.9 °C 1015.5 hPa Calm     93% 0 mm
05:54 13.8 °C 12.7 °C 1015.5 hPa Calm     93% 0 mm
05:59 13.8 °C 12.7 °C 1015.5 hPa Calm     93% 0 mm
06:04 13.8 °C 12.7 °C 1015.5 hPa Calm     93% 0 mm
06:09 13.7 °C 12.6 °C 1015.8 hPa Calm     93% 0 mm
06:14 13.6 °C 12.4 °C 1015.8 hPa Calm     93% 0 mm
06:19 13.5 °C 12.4 °C 1015.8 hPa Calm     93% 0 mm
06:24 13.5 °C 12.4 °C 1015.8 hPa Calm     93% 0 mm
06:29 13.5 °C 12.4 °C 1015.8 hPa Calm     93% 0 mm
06:34 13.5 °C 12.4 °C 1015.8 hPa Calm     93% 0 mm
06:39 13.6 °C 12.7 °C 1015.8 hPa Calm     94% 0 mm
06:44 13.8 °C 12.8 °C 1015.8 hPa Calm     94% 0 mm
06:49 13.9 °C 12.9 °C 1016.1 hPa Calm     94% 0 mm
06:54 13.9 °C 13 °C 1016.1 hPa Calm     94% 0 mm
06:59 14.2 °C 13.3 °C 1016.1 hPa Calm     94% 0 mm
07:04 14.4 °C 13.5 °C 1016.1 hPa Calm     94% 0 mm
07:09 14.6 °C 13.7 °C 1016.1 hPa Calm     94% 0 mm
07:14 14.7 °C 13.8 °C 1016.1 hPa Calm     94% 0 mm
07:19 14.8 °C 13.9 °C 1016.5 hPa Calm     94% 0 mm
07:24 15 °C 14.1 °C 1016.5 hPa Calm     94% 0 mm
07:29 15.3 °C 14.4 °C 1016.5 hPa Calm     94% 0 mm
07:34 15.7 °C 14.7 °C 1016.5 hPa Calm     94% 0 mm
07:39 15.8 °C 14.9 °C 1016.8 hPa Calm     94% 0 mm
07:44 15.8 °C 14.9 °C 1016.8 hPa Calm     94% 0 mm
07:49 15.9 °C 14.8 °C 1016.8 hPa Calm     93% 0 mm
07:54 16 °C 14.9 °C 1016.8 hPa Calm     93% 0 mm
07:59 16.2 °C 15.1 °C 1016.8 hPa Calm     93% 0 mm
08:04 16.3 °C 15.2 °C 1016.8 hPa Calm     93% 0 mm
08:09 16.7 °C 15.6 °C 1016.8 hPa Calm     93% 0 mm
08:14 17.2 °C 16 °C 1016.8 hPa Calm     93% 0 mm
08:19 17.3 °C 15.8 °C 1017.2 hPa WNW 1.6 km/h 6.4 km/h 91% 0 mm
08:24 17.5 °C 16 °C 1017.2 hPa Calm   6.4 km/h 91% 0 mm
08:29 17.8 °C 15.9 °C 1017.2 hPa Calm   6.4 km/h 89% 0 mm
08:34 17.8 °C 15.8 °C 1016.8 hPa Calm   11.3 km/h 88% 0 mm
08:39 18.1 °C 15.7 °C 1017.2 hPa NW 8 km/h 9.7 km/h 86% 0 mm
08:44 18.4 °C 15.8 °C 1016.8 hPa NNW 4.8 km/h 12.9 km/h 85% 0 mm
08:49 18.8 °C 15.8 °C 1017.2 hPa WNW 4.8 km/h 8 km/h 83% 0 mm
08:54 19.2 °C 16 °C 1017.2 hPa NW 4.8 km/h 9.7 km/h 82% 0 mm
08:59 19.2 °C 15.6 °C 1017.2 hPa NW 4.8 km/h 12.9 km/h 80% 0 mm
09:04 19.1 °C 15.4 °C 1017.2 hPa NNW 4.8 km/h 12.9 km/h 79% 0 mm
09:09 19.2 °C 15.6 °C 1017.2 hPa NNW 4.8 km/h 11.3 km/h 80% 0 mm
09:14 19.8 °C 15.9 °C 1017.2 hPa NNW 3.2 km/h 11.3 km/h 78% 0 mm
09:19 20.2 °C 15.8 °C 1017.2 hPa NNW 3.2 km/h 9.7 km/h 76% 0 mm
09:24 20.4 °C 15.6 °C 1017.2 hPa NW 4.8 km/h 9.7 km/h 74% 0 mm
09:29 20.1 °C 14.9 °C 1017.5 hPa NNW 4.8 km/h 12.9 km/h 72% 0 mm
09:34 20.1 °C 14.4 °C 1017.5 hPa NNE 6.4 km/h 12.9 km/h 70% 0 mm
09:39 20.3 °C 14.9 °C 1017.5 hPa North 6.4 km/h 11.3 km/h 71% 0 mm
09:44 20.7 °C 15.4 °C 1017.5 hPa ESE 4.8 km/h 8 km/h 72% 0 mm
09:49 21 °C 15.3 °C 1017.5 hPa NW 1.6 km/h 9.7 km/h 70% 0 mm
09:54 20.7 °C 15.1 °C 1017.5 hPa NW 4.8 km/h 14.5 km/h 70% 0 mm
09:59 20.2 °C 14.1 °C 1017.5 hPa WNW 6.4 km/h 14.5 km/h 68% 0 mm
10:04 20.3 °C 14.7 °C 1017.5 hPa NW 6.4 km/h 11.3 km/h 70% 0 mm
10:09 21.1 °C 16 °C 1017.5 hPa NNW 1.6 km/h 12.9 km/h 73% 0 mm
10:14 21.3 °C 14.7 °C 1017.5 hPa North 3.2 km/h 8 km/h 66% 0 mm
10:19 21.6 °C 14.9 °C 1017.5 hPa NW 3.2 km/h 11.3 km/h 66% 0 mm
10:24 21.4 °C 14.6 °C 1017.5 hPa NNW 4.8 km/h 16.1 km/h 65% 0 mm
10:29 21.6 °C 14.7 °C 1017.5 hPa NNW 6.4 km/h 16.1 km/h 65% 0 mm
10:34 21.6 °C 14.7 °C 1017.5 hPa NW 6.4 km/h 16.1 km/h 65% 0 mm
10:39 21.9 °C 14.3 °C 1017.5 hPa NW 4.8 km/h 12.9 km/h 62% 0 mm
10:44 21.8 °C 14.5 °C 1017.5 hPa NNW 4.8 km/h 14.5 km/h 63% 0 mm
10:49 22.3 °C 14.4 °C 1017.5 hPa WNW 3.2 km/h 12.9 km/h 61% 0 mm
10:54 22.6 °C 14.4 °C 1017.5 hPa WNW 6.4 km/h 11.3 km/h 60% 0 mm
10:59 21.9 °C 13.5 °C 1017.5 hPa NW 4.8 km/h 12.9 km/h 59% 0 mm
11:04 22.2 °C 13.8 °C 1017.5 hPa NW 6.4 km/h 12.9 km/h 59% 0 mm
11:09 22.2 °C 12.7 °C 1017.5 hPa WNW 6.4 km/h 16.1 km/h 55% 0 mm
11:14 21.9 °C 13.5 °C 1017.5 hPa WNW 11.3 km/h 16.1 km/h 59% 0 mm
11:19 22.3 °C 12.8 °C 1017.5 hPa WNW 6.4 km/h 16.1 km/h 55% 0 mm
11:24 22.3 °C 14.2 °C 1017.8 hPa Calm   11.3 km/h 60% 0 mm
11:29 22.7 °C 13.4 °C 1017.8 hPa NNW 9.7 km/h 14.5 km/h 56% 0 mm
11:34 22.2 °C 13 °C 1017.8 hPa NNW 6.4 km/h 14.5 km/h 56% 0 mm
11:39 22.6 °C 13.7 °C 1017.8 hPa NNW 6.4 km/h 14.5 km/h 57% 0 mm
11:44 22.2 °C 12.7 °C 1017.5 hPa NNW 6.4 km/h 20.9 km/h 55% 0 mm
11:49 22.4 °C 12.6 °C 1017.8 hPa WNW 4.8 km/h 12.9 km/h 54% 0 mm
11:54 22.4 °C 12.9 °C 1017.8 hPa NW 4.8 km/h 11.3 km/h 55% 0 mm
11:59 22.2 °C 13 °C 1017.8 hPa Calm   12.9 km/h 56% 0 mm
12:04 21.8 °C 12.3 °C 1017.8 hPa NW 4.8 km/h 12.9 km/h 55% 0 mm
12:09 22.6 °C 12.8 °C 1017.8 hPa NW 6.4 km/h 12.9 km/h 54% 0 mm
12:14 22.9 °C 12.2 °C 1017.8 hPa NW 6.4 km/h 14.5 km/h 51% 0 mm
12:19 22.8 °C 12.2 °C 1017.8 hPa North 1.6 km/h 12.9 km/h 51% 0 mm
12:24 23.4 °C 12.9 °C 1017.8 hPa NW 4.8 km/h 20.9 km/h 52% 0 mm
12:29 23.2 °C 11.6 °C 1017.8 hPa West 8 km/h 16.1 km/h 48% 0 mm
12:34 23.5 °C 11.8 °C 1017.8 hPa WNW 6.4 km/h 16.1 km/h 48% 0 mm
12:39 23.4 °C 13.3 °C 1017.8 hPa WNW 6.4 km/h 14.5 km/h 53% 0 mm
12:44 23 °C 12 °C 1017.8 hPa NNW 4.8 km/h 14.5 km/h 50% 0 mm
12:49 23.2 °C 12.8 °C 1017.8 hPa NNW 4.8 km/h 14.5 km/h 52% 0 mm
12:54 22.6 °C 11.9 °C 1017.8 hPa NNW 4.8 km/h 12.9 km/h 51% 0 mm
12:59 23.2 °C 12.4 °C 1017.8 hPa NW 6.4 km/h 16.1 km/h 51% 0 mm
13:04 23.4 °C 13.3 °C 1017.8 hPa West 8 km/h 11.3 km/h 53% 0 mm
13:09 23.7 °C 12.1 °C 1017.8 hPa NNW 6.4 km/h 17.7 km/h 48% 0 mm
13:14 23.7 °C 12.3 °C 1017.8 hPa West 6.4 km/h 14.5 km/h 49% 0 mm
13:19 23.9 °C 12.5 °C 1017.8 hPa NW 8 km/h 12.9 km/h 49% 0 mm
13:24 24 °C 11.7 °C 1017.8 hPa WNW 6.4 km/h 16.1 km/h 46% 0 mm
13:29 24.2 °C 11.8 °C 1017.8 hPa WNW 6.4 km/h 11.3 km/h 46% 0 mm
13:34 24.4 °C 11.4 °C 1017.8 hPa WNW 4.8 km/h 16.1 km/h 44% 0 mm
13:39 23.9 °C 11.9 °C 1017.8 hPa WNW 6.4 km/h 17.7 km/h 47% 0 mm
13:44 23.9 °C 11.3 °C 1017.8 hPa NW 8 km/h 17.7 km/h 45% 0 mm
13:54 24.1 °C 10.4 °C 1017.8 hPa WNW 9.7 km/h 22.5 km/h 42% 0 mm
13:59 24 °C 9.6 °C 1017.8 hPa West 8 km/h 20.9 km/h 40% 0 mm
14:04 24.3 °C 10.2 °C 1017.8 hPa West 8 km/h 20.9 km/h 41% 0 mm
14:09 24.4 °C 9.6 °C 1018.2 hPa West 12.9 km/h 19.3 km/h 39% 0 mm
14:14 24.4 °C 11 °C 1018.2 hPa NW 3.2 km/h 16.1 km/h 43% 0 mm
14:19 24.6 °C 10.4 °C 1018.2 hPa NW 9.7 km/h 22.5 km/h 41% 0 mm
14:24 24.5 °C 10.4 °C 1018.2 hPa Calm   20.9 km/h 41% 0 mm
14:29 24.4 °C 8.8 °C 1018.2 hPa NNW 8 km/h 19.3 km/h 37% 0 mm
14:34 24.2 °C 9.8 °C 1017.8 hPa NE 9.7 km/h 19.3 km/h 40% 0 mm
14:39 24.4 °C 10.7 °C 1017.8 hPa NNW 8 km/h 19.3 km/h 42% 0 mm
14:44 25.1 °C 10.6 °C 1018.2 hPa NW 6.4 km/h 19.3 km/h 40% 0 mm
14:49 24.9 °C 9.7 °C 1017.8 hPa WNW 8 km/h 19.3 km/h 38% 0 mm
14:54 24.8 °C 9.1 °C 1017.8 hPa WNW 9.7 km/h 19.3 km/h 37% 0 mm
14:59 25.1 °C 11.2 °C 1017.8 hPa WNW 9.7 km/h 17.7 km/h 42% 0 mm
15:04 25 °C 11.2 °C 1017.8 hPa NNW 1.6 km/h 9.7 km/h 42% 0 mm
15:09 25.2 °C 11.7 °C 1017.8 hPa NW 6.4 km/h 12.9 km/h 43% 0 mm
15:14 24.9 °C 11.8 °C 1017.8 hPa NW 6.4 km/h 14.5 km/h 44% 0 mm
15:19 24.9 °C 11.2 °C 1017.8 hPa NNW 4.8 km/h 11.3 km/h 42% 0 mm
15:24 25 °C 11.9 °C 1017.8 hPa WSW 4.8 km/h 12.9 km/h 44% 0 mm
15:29 24.8 °C 15.1 °C 1017.8 hPa SW 16.1 km/h 17.7 km/h 55% 0 mm
15:34 24 °C 14.1 °C 1017.8 hPa West 9.7 km/h 20.9 km/h 54% 0 mm
15:39 24.1 °C 15 °C 1017.8 hPa SW 8 km/h 20.9 km/h 57% 0 mm
15:44 23.9 °C 15.1 °C 1017.8 hPa WSW 9.7 km/h 20.9 km/h 58% 0 mm
15:49 23.9 °C 14.6 °C 1017.8 hPa WSW 9.7 km/h 19.3 km/h 56% 0 mm
15:54 24 °C 14.9 °C 1017.8 hPa WSW 9.7 km/h 19.3 km/h 57% 0 mm
15:59 23.6 °C 14.6 °C 1017.8 hPa SW 25.7 km/h 27.4 km/h 57% 0 mm
16:04 23.6 °C 15.3 °C 1017.8 hPa SSW 3.2 km/h 19.3 km/h 60% 0 mm
16:09 23.8 °C 14.8 °C 1017.8 hPa West 12.9 km/h 19.3 km/h 57% 0 mm
16:14 23.4 °C 14.7 °C 1017.5 hPa SW 11.3 km/h 22.5 km/h 58% 0 mm
16:19 23.5 °C 14.8 °C 1017.8 hPa SW 11.3 km/h 25.7 km/h 58% 0 mm
16:24 23.4 °C 14.9 °C 1017.5 hPa SW 9.7 km/h 25.7 km/h 59% 0 mm
16:29 23.4 °C 14.7 °C 1017.5 hPa SW 11.3 km/h 24.1 km/h 58% 0 mm
16:34 23.5 °C 15 °C 1017.5 hPa SW 11.3 km/h 24.1 km/h 59% 0 mm
16:39 23.6 °C 15.1 °C 1017.5 hPa West 11.3 km/h 24.1 km/h 59% 0 mm
16:44 23.5 °C 15 °C 1017.5 hPa SW 9.7 km/h 20.9 km/h 59% 0 mm
16:49 23.3 °C 14.8 °C 1017.5 hPa SW 6.4 km/h 17.7 km/h 59% 0 mm
16:54 23.3 °C 15.7 °C 1017.5 hPa WNW 8 km/h 20.9 km/h 62% 0 mm
16:59 23.5 °C 15.6 °C 1017.5 hPa WSW 9.7 km/h 14.5 km/h 61% 0 mm
17:04 23.4 °C 15.7 °C 1017.5 hPa West 11.3 km/h 17.7 km/h 62% 0 mm
17:09 23.3 °C 15.3 °C 1017.5 hPa WSW 9.7 km/h 24.1 km/h 61% 0 mm
17:14 22.9 °C 14.9 °C 1017.5 hPa WSW 8 km/h 20.9 km/h 61% 0 mm
17:19 23.1 °C 15.6 °C 1017.5 hPa WSW 9.7 km/h 20.9 km/h 63% 0 mm
17:24 22.9 °C 15.3 °C 1017.5 hPa WSW 9.7 km/h 20.9 km/h 62% 0 mm
17:29 23.2 °C 15.7 °C 1017.5 hPa WSW 9.7 km/h 20.9 km/h 63% 0 mm
17:34 22.8 °C 15.4 °C 1017.5 hPa WSW 9.7 km/h 20.9 km/h 63% 0 mm
17:39 22.8 °C 15.1 °C 1017.5 hPa WSW 9.7 km/h 20.9 km/h 62% 0 mm
17:44 22.6 °C 14.9 °C 1017.5 hPa WSW 6.4 km/h 22.5 km/h 62% 0 mm
17:49 22.6 °C 15.7 °C 1017.5 hPa WSW 12.9 km/h 17.7 km/h 65% 0 mm
17:54 22.4 °C 15.6 °C 1017.5 hPa West 12.9 km/h 19.3 km/h 65% 0 mm
17:59 22.4 °C 15.6 °C 1017.5 hPa WSW 12.9 km/h 20.9 km/h 65% 0 mm
18:04 22.3 °C 15.7 °C 1017.5 hPa SW 12.9 km/h 19.3 km/h 66% 0 mm
18:09 22.2 °C 16.1 °C 1017.5 hPa WSW 19.3 km/h 19.3 km/h 68% 0 mm
18:14 22.2 °C 16 °C 1017.5 hPa SW 6.4 km/h 20.9 km/h 68% 0 mm
18:19 22.2 °C 16.1 °C 1017.5 hPa WSW 9.7 km/h 20.9 km/h 68% 0 mm
18:24 22.2 °C 15.8 °C 1017.5 hPa WSW 9.7 km/h 17.7 km/h 67% 0 mm
18:29 22 °C 15.8 °C 1017.5 hPa WSW 11.3 km/h 22.5 km/h 68% 0 mm
18:34 21.8 °C 15.9 °C 1017.5 hPa WSW 11.3 km/h 22.5 km/h 69% 0 mm
18:39 21.8 °C 15.9 °C 1017.5 hPa South 8 km/h 24.1 km/h 69% 0 mm
18:44 21.8 °C 15.9 °C 1017.5 hPa SW 4.8 km/h 20.9 km/h 69% 0 mm
18:49 21.9 °C 15.7 °C 1017.8 hPa SW 6.4 km/h 16.1 km/h 68% 0 mm
18:54 21.7 °C 15.8 °C 1017.8 hPa WSW 9.7 km/h 20.9 km/h 69% 0 mm
18:59 21.7 °C 15.7 °C 1017.8 hPa SW 8 km/h 19.3 km/h 69% 0 mm
19:04 21.6 °C 15.9 °C 1017.8 hPa WSW 12.9 km/h 17.7 km/h 70% 0 mm
19:09 21.6 °C 15.9 °C 1017.8 hPa SW 6.4 km/h 17.7 km/h 70% 0 mm
19:14 21.6 °C 15.9 °C 1017.8 hPa WSW 9.7 km/h 14.5 km/h 70% 0 mm
19:19 21.4 °C 15.9 °C 1017.8 hPa SSW 11.3 km/h 19.3 km/h 71% 0 mm
19:24 21.4 °C 15.9 °C 1017.8 hPa SW 9.7 km/h 19.3 km/h 71% 0 mm
19:29 21.4 °C 15.9 °C 1017.8 hPa WSW 9.7 km/h 20.9 km/h 71% 0 mm
19:34 21.4 °C 15.9 °C 1018.2 hPa WSW 9.7 km/h 20.9 km/h 71% 0 mm
19:39 21.3 °C 16 °C 1017.8 hPa West 8 km/h 19.3 km/h 72% 0 mm
19:44 21.3 °C 15.8 °C 1017.8 hPa SW 6.4 km/h 16.1 km/h 71% 0 mm
19:49 21.2 °C 15.9 °C 1017.8 hPa WSW 16.1 km/h 19.3 km/h 72% 0 mm
19:54 21.2 °C 15.9 °C 1017.8 hPa SW 9.7 km/h 22.5 km/h 72% 0 mm
19:59 21.1 °C 15.8 °C 1017.8 hPa WSW 11.3 km/h 22.5 km/h 72% 0 mm
20:04 21 °C 16 °C 1018.2 hPa WSW 9.7 km/h 17.7 km/h 73% 0 mm
20:09 21 °C 16 °C 1018.2 hPa WSW 8 km/h 17.7 km/h 73% 0 mm
20:14 21 °C 16 °C 1018.2 hPa SW 9.7 km/h 19.3 km/h 73% 0 mm
20:19 20.9 °C 15.9 °C 1018.2 hPa SW 17.7 km/h 22.5 km/h 73% 0 mm
20:24 20.9 °C 16.1 °C 1018.2 hPa WSW 9.7 km/h 22.5 km/h 74% 0 mm
20:29 20.9 °C 16.1 °C 1018.2 hPa WSW 6.4 km/h 17.7 km/h 74% 0 mm
20:34 20.8 °C 16 °C 1018.2 hPa SW 8 km/h 16.1 km/h 74% 0 mm
20:39 20.8 °C 16 °C 1018.2 hPa WSW 12.9 km/h 16.1 km/h 74% 0 mm
20:44 20.8 °C 16.2 °C 1018.2 hPa West 6.4 km/h 19.3 km/h 75% 0 mm
20:49 20.8 °C 16.2 °C 1018.2 hPa WSW 3.2 km/h 16.1 km/h 75% 0 mm
20:54 20.8 °C 16.2 °C 1018.2 hPa WSW 6.4 km/h 16.1 km/h 75% 0 mm
20:59 20.7 °C 16.3 °C 1018.5 hPa WSW 6.4 km/h 17.7 km/h 76% 0 mm
21:04 20.7 °C 16.3 °C 1018.5 hPa SW 6.4 km/h 17.7 km/h 76% 0 mm
21:09 20.7 °C 16.3 °C 1018.5 hPa SW 6.4 km/h 22.5 km/h 76% 0 mm
21:14 20.7 °C 16.3 °C 1018.5 hPa SW 6.4 km/h 22.5 km/h 76% 0 mm
21:19 20.7 °C 16.3 °C 1018.5 hPa SW 4.8 km/h 11.3 km/h 76% 0 mm
21:24 20.7 °C 16.3 °C 1018.5 hPa WSW 3.2 km/h 16.1 km/h 76% 0 mm
21:29 20.8 °C 16.4 °C 1018.5 hPa WSW 9.7 km/h 16.1 km/h 76% 0 mm
21:34 20.8 °C 16.4 °C 1018.5 hPa SW 4.8 km/h 14.5 km/h 76% 0 mm
21:39 20.8 °C 16.4 °C 1018.5 hPa SW 12.9 km/h 17.7 km/h 76% 0 mm
21:44 20.8 °C 16.4 °C 1018.5 hPa West 8 km/h 25.7 km/h 76% 0 mm
21:49 20.8 °C 16.4 °C 1018.8 hPa SW 4.8 km/h 24.1 km/h 76% 0 mm
21:54 20.9 °C 16.7 °C 1018.8 hPa West 11.3 km/h 16.1 km/h 77% 0 mm
21:59 20.8 °C 16.7 °C 1018.8 hPa SW 6.4 km/h 22.5 km/h 77% 0 mm
22:04 20.8 °C 16.7 °C 1018.8 hPa SW 8 km/h 22.5 km/h 77% 0 mm
22:09 20.8 °C 16.8 °C 1018.8 hPa SW 8 km/h 16.1 km/h 78% 0 mm
22:14 20.8 °C 16.8 °C 1018.8 hPa WSW 8 km/h 19.3 km/h 78% 0 mm
22:19 20.9 °C 16.9 °C 1018.8 hPa SW 8 km/h 19.3 km/h 78% 0 mm
22:24 20.9 °C 17.2 °C 1018.8 hPa SW 8 km/h 17.7 km/h 79% 0 mm
22:29 20.9 °C 17.1 °C 1018.8 hPa WSW 6.4 km/h 16.1 km/h 79% 0 mm
22:34 20.9 °C 17.2 °C 1018.8 hPa WSW 4.8 km/h 19.3 km/h 79% 0 mm
22:39 20.9 °C 17.2 °C 1018.8 hPa West 4.8 km/h 17.7 km/h 79% 0 mm
22:44 20.9 °C 17.2 °C 1018.8 hPa WSW 6.4 km/h 16.1 km/h 79% 0 mm
22:49 20.9 °C 17.2 °C 1018.8 hPa WSW 4.8 km/h 20.9 km/h 79% 0 mm
22:54 20.9 °C 17.2 °C 1019.2 hPa WSW 12.9 km/h 16.1 km/h 79% 0 mm
22:59 20.9 °C 17.2 °C 1019.2 hPa WSW 4.8 km/h 14.5 km/h 79% 0 mm
23:04 20.9 °C 17.2 °C 1019.2 hPa WSW 6.4 km/h 14.5 km/h 79% 0 mm
23:15 20.8 °C 17.1 °C 1019.2 hPa WSW 12.9 km/h 12.9 km/h 79% 0 mm
23:24 20.8 °C 17.1 °C 1019.2 hPa SW 8 km/h 17.7 km/h 79% 0 mm
23:29 20.8 °C 17.1 °C 1019.2 hPa West 6.4 km/h 12.9 km/h 79% 0 mm
23:34 20.8 °C 17.3 °C 1019.2 hPa SW 6.4 km/h 11.3 km/h 80% 0 mm
23:39 20.8 °C 17.2 °C 1019.2 hPa SW 9.7 km/h 11.3 km/h 80% 0 mm
23:44 20.7 °C 17.2 °C 1019.2 hPa WSW 3.2 km/h 9.7 km/h 80% 0 mm
23:49 20.7 °C 17.3 °C 1019.2 hPa SW 9.7 km/h 11.3 km/h 81% 0 mm
23:54 20.7 °C 17.3 °C 1019.2 hPa SSW 8 km/h 14.5 km/h 81% 0 mm
23:59 20.7 °C 17.3 °C 1019.2 hPa WSW 3.2 km/h 11.3 km/h 81% 0 mm
Buffalo, New York, USA
Compliments of Weather Underground - 2.5 mb